Time;durP1;ratioP1;P1;durP2;ratioP2;P2;SDS_P1;SDS_P2;PMS_P1;PMS_P2;Temp;Humidity;BMP_temperature;BMP_pressure;BME280_temperature;BME280_humidity;BME280_pressure;Samples;Min_cycle;Max_cycle;Signal;HPM_P1;HPM_P2
2021/09/09 00:01:29;;;;;;;12.18;9.20;;;19.10;98.30;;;;;;5056761;28;20476;-90
2021/09/09 00:03:55;;;;;;;12.48;9.57;;;19.00;98.40;;;;;;5056715;28;20091;-90
2021/09/09 00:06:21;;;;;;;13.80;9.27;;;18.90;98.50;;;;;;5056872;28;20284;-90
2021/09/09 00:08:46;;;;;;;12.82;9.40;;;18.90;98.60;;;;;;5056765;28;20051;-91
2021/09/09 00:11:12;;;;;;;11.50;8.82;;;18.90;98.80;;;;;;5056717;28;20059;-91
2021/09/09 00:13:38;;;;;;;12.23;8.70;;;18.90;98.90;;;;;;5056691;28;20480;-91
2021/09/09 00:16:04;;;;;;;12.05;9.50;;;18.80;98.90;;;;;;5074453;28;20086;-91
2021/09/09 00:18:30;;;;;;;13.27;9.73;;;18.80;99.00;;;;;;5074351;28;20066;-91
2021/09/09 00:20:55;;;;;;;13.57;9.55;;;18.80;99.10;;;;;;5073916;28;20074;-91
2021/09/09 00:23:21;;;;;;;16.23;9.75;;;18.80;99.20;;;;;;5074453;28;20021;-90
2021/09/09 00:25:47;;;;;;;12.73;9.73;;;18.70;99.20;;;;;;5056468;28;20020;-90
2021/09/09 00:28:13;;;;;;;12.80;9.63;;;18.70;99.30;;;;;;5056241;28;20083;-90
2021/09/09 00:30:39;;;;;;;13.85;9.43;;;18.70;99.50;;;;;;5055714;28;20043;-92
2021/09/09 00:33:07;;;;;;;14.10;9.50;;;18.70;99.60;;;;;;5056360;28;20481;-90
2021/09/09 00:35:32;;;;;;;13.50;9.67;;;18.70;99.70;;;;;;5056376;28;20024;-91
2021/09/09 00:37:58;;;;;;;12.88;9.50;;;18.60;99.80;;;;;;5056503;28;20115;-91
2021/09/09 00:40:23;;;;;;;17.02;10.00;;;18.60;99.90;;;;;;5056457;28;20029;-90
2021/09/09 00:42:49;;;;;;;11.73;9.15;;;18.60;99.90;;;;;;5056123;28;20123;-90
2021/09/09 00:45:15;;;;;;;13.10;9.13;;;18.60;99.90;;;;;;5056167;28;20021;-90
2021/09/09 00:47:41;;;;;;;14.90;10.07;;;18.50;99.90;;;;;;5056060;28;20028;-90
2021/09/09 00:50:07;;;;;;;14.18;9.93;;;18.50;99.90;;;;;;5055977;28;20499;-90
2021/09/09 00:52:33;;;;;;;13.93;8.98;;;18.50;99.90;;;;;;5056035;28;20388;-90
2021/09/09 00:54:58;;;;;;;14.77;9.50;;;18.40;99.90;;;;;;5055914;28;20094;-90
2021/09/09 00:57:24;;;;;;;12.50;9.35;;;18.40;99.90;;;;;;5055769;28;20034;-90
2021/09/09 00:59:52;;;;;;;12.40;9.60;;;18.40;99.90;;;;;;5055898;28;20397;-89
2021/09/09 01:02:18;;;;;;;14.13;10.10;;;18.40;99.90;;;;;;5055837;28;20122;-90
2021/09/09 01:04:44;;;;;;;13.65;9.88;;;18.30;99.90;;;;;;5055340;28;20503;-90
2021/09/09 01:07:10;;;;;;;12.77;9.68;;;18.30;99.90;;;;;;5073587;28;20036;-90
2021/09/09 01:09:35;;;;;;;12.93;9.52;;;18.30;99.90;;;;;;5055559;28;20477;-90
2021/09/09 01:12:01;;;;;;;12.85;9.65;;;18.20;99.90;;;;;;5055532;28;20481;-90
2021/09/09 01:14:27;;;;;;;13.93;9.27;;;18.10;99.90;;;;;;5073677;28;20033;-90
2021/09/09 01:16:52;;;;;;;13.75;9.75;;;18.10;99.90;;;;;;5073399;28;20035;-90
2021/09/09 01:19:18;;;;;;;14.88;10.18;;;18.10;99.90;;;;;;5073593;28;20028;-90
2021/09/09 01:21:44;;;;;;;14.25;9.88;;;18.10;99.90;;;;;;5055566;28;20032;-90
2021/09/09 01:24:18;;;;;;;13.82;9.95;;;18.00;99.90;;;;;;5055736;28;20020;-90
2021/09/09 01:26:53;;;;;;;13.45;10.07;;;18.00;99.90;;;;;;5073960;28;20024;-90
2021/09/09 01:29:23;;;;;;;14.07;9.88;;;18.00;99.90;;;;;;5072961;28;20048;-90
2021/09/09 01:31:50;;;;;;;13.57;10.75;;;18.00;99.90;;;;;;5057941;28;20047;-90
2021/09/09 01:34:16;;;;;;;14.32;10.18;;;18.00;99.90;;;;;;5058878;28;20033;-90
2021/09/09 01:36:42;;;;;;;12.70;9.48;;;18.00;99.90;;;;;;5057712;28;20029;-91
2021/09/09 01:39:07;;;;;;;12.27;9.73;;;18.00;99.90;;;;;;5072988;28;20036;-90
2021/09/09 01:41:33;;;;;;;13.52;10.02;;;17.90;99.90;;;;;;5054657;28;20032;-89
2021/09/09 01:43:59;;;;;;;13.57;9.95;;;17.90;99.90;;;;;;5072908;28;20077;-90
2021/09/09 01:46:24;;;;;;;14.32;10.00;;;17.90;99.90;;;;;;5054911;28;20029;-90
2021/09/09 01:48:50;;;;;;;14.88;9.60;;;17.90;99.90;;;;;;5072862;28;20384;-89
2021/09/09 01:51:16;;;;;;;13.60;10.05;;;17.90;99.90;;;;;;5054824;28;20034;-90
2021/09/09 01:53:41;;;;;;;13.82;9.60;;;17.80;99.90;;;;;;5072797;28;20024;-89
2021/09/09 01:56:08;;;;;;;14.10;10.43;;;17.80;99.90;;;;;;5072728;28;20032;-90
2021/09/09 01:58:34;;;;;;;13.38;10.27;;;17.80;99.90;;;;;;5072608;28;20500;-89
2021/09/09 02:01:00;;;;;;;13.38;9.80;;;17.80;99.90;;;;;;5054942;28;20441;-90
2021/09/09 02:03:26;;;;;;;13.88;9.70;;;17.80;99.90;;;;;;5054642;28;20029;-90
2021/09/09 02:05:51;;;;;;;13.90;10.30;;;17.70;99.90;;;;;;5054668;28;20025;-89
2021/09/09 02:08:17;;;;;;;12.57;9.90;;;17.70;99.90;;;;;;5054766;28;20028;-89
2021/09/09 02:10:43;;;;;;;14.68;10.43;;;17.70;99.90;;;;;;5054401;28;20473;-90
2021/09/09 02:13:09;;;;;;;16.45;9.73;;;17.70;99.90;;;;;;5054555;28;20032;-90
2021/09/09 02:15:34;;;;;;;13.77;10.05;;;17.70;99.90;;;;;;5053840;28;20116;-90
2021/09/09 02:18:00;;;;;;;13.30;9.82;;;17.70;99.90;;;;;;5054474;28;20021;-90
2021/09/09 02:20:26;;;;;;;15.95;10.52;;;17.60;99.90;;;;;;5054620;28;20361;-90
2021/09/09 02:22:52;;;;;;;16.52;10.93;;;17.60;99.90;;;;;;5054347;28;20413;-90
2021/09/09 02:25:18;;;;;;;16.02;9.95;;;17.60;99.90;;;;;;5054413;28;20029;-91
2021/09/09 02:27:44;;;;;;;14.07;10.70;;;17.60;99.90;;;;;;5072100;28;20024;-91
2021/09/09 02:30:10;;;;;;;12.82;10.15;;;17.60;99.90;;;;;;5053081;28;20029;-92
2021/09/09 02:32:36;;;;;;;16.65;10.45;;;17.60;99.90;;;;;;5070131;28;20085;-91
2021/09/09 02:35:02;;;;;;;15.63;10.65;;;17.60;99.90;;;;;;5054167;28;20033;-91
2021/09/09 02:37:28;;;;;;;13.75;10.10;;;17.60;99.90;;;;;;5054105;28;20028;-91
2021/09/09 02:39:53;;;;;;;14.32;10.32;;;17.60;99.90;;;;;;5053691;28;20062;-90
2021/09/09 02:42:19;;;;;;;17.30;10.82;;;17.60;99.90;;;;;;5053967;28;20037;-91
2021/09/09 02:44:44;;;;;;;14.60;10.57;;;17.60;99.90;;;;;;5054278;28;20037;-91
2021/09/09 02:47:10;;;;;;;15.02;10.98;;;17.60;99.90;;;;;;5072237;28;20025;-92
2021/09/09 02:49:36;;;;;;;14.50;10.45;;;17.60;99.90;;;;;;5054346;28;20025;-91
2021/09/09 02:52:02;;;;;;;15.43;10.65;;;17.60;99.90;;;;;;5072121;28;20105;-91
2021/09/09 02:54:27;;;;;;;15.00;10.60;;;17.50;99.90;;;;;;5054136;28;20370;-92
2021/09/09 02:56:53;;;;;;;13.90;10.00;;;17.60;99.90;;;;;;5054096;28;20035;-91
2021/09/09 02:59:18;;;;;;;14.65;10.80;;;17.50;99.90;;;;;;5054274;28;20616;-92
2021/09/09 03:01:44;;;;;;;14.50;10.05;;;17.50;99.90;;;;;;5054002;28;20046;-92
2021/09/09 03:04:09;;;;;;;12.93;10.18;;;17.50;99.90;;;;;;5054499;28;20097;-92
2021/09/09 03:06:35;;;;;;;16.45;10.77;;;17.40;99.90;;;;;;5054064;28;20029;-91
2021/09/09 03:09:01;;;;;;;15.80;10.30;;;17.40;99.90;;;;;;5054100;28;20024;-91
2021/09/09 03:11:26;;;;;;;17.23;11.13;;;17.40;99.90;;;;;;5053890;28;20096;-92
2021/09/09 03:13:52;;;;;;;14.77;10.63;;;17.40;99.90;;;;;;5054088;28;20389;-92
2021/09/09 03:16:18;;;;;;;16.48;11.32;;;17.40;99.90;;;;;;5053991;28;20031;-91
2021/09/09 03:18:43;;;;;;;17.33;11.23;;;17.40;99.90;;;;;;5071696;28;20402;-89
2021/09/09 03:21:09;;;;;;;14.68;11.05;;;17.40;99.90;;;;;;5071522;28;20028;-89
2021/09/09 03:23:35;;;;;;;16.10;11.20;;;17.40;99.90;;;;;;5053853;28;20123;-90
2021/09/09 03:26:01;;;;;;;20.33;14.18;;;17.40;99.90;;;;;;5053904;28;20043;-90
2021/09/09 03:28:27;;;;;;;14.57;11.63;;;17.30;99.90;;;;;;5073412;28;20029;-89
2021/09/09 03:30:52;;;;;;;15.32;10.90;;;17.40;99.90;;;;;;5057474;28;20028;-89
2021/09/09 03:33:18;;;;;;;16.98;11.80;;;17.40;99.90;;;;;;5075316;28;20116;-91
2021/09/09 03:35:44;;;;;;;14.50;11.25;;;17.40;99.90;;;;;;5057511;28;20063;-90
2021/09/09 03:38:09;;;;;;;15.95;11.18;;;17.40;99.90;;;;;;5057140;28;20020;-90
2021/09/09 03:40:36;;;;;;;15.88;11.77;;;17.40;99.90;;;;;;5056744;28;20036;-91
2021/09/09 03:43:02;;;;;;;15.38;11.82;;;17.30;99.90;;;;;;5057195;28;20119;-91
2021/09/09 03:45:27;;;;;;;14.77;11.38;;;17.40;99.90;;;;;;5075501;28;20095;-91
2021/09/09 03:47:53;;;;;;;16.27;11.68;;;17.40;99.90;;;;;;5057024;28;20427;-91
2021/09/09 03:50:19;;;;;;;17.25;11.63;;;17.40;99.90;;;;;;5056719;28;20465;-91
2021/09/09 03:52:44;;;;;;;15.65;11.32;;;17.40;99.90;;;;;;5056966;28;20060;-91
2021/09/09 03:55:11;;;;;;;16.65;12.77;;;17.40;99.90;;;;;;5056961;28;20063;-91
2021/09/09 03:57:38;;;;;;;18.00;12.43;;;17.30;99.90;;;;;;5056877;28;20028;-91
2021/09/09 04:00:04;;;;;;;17.52;11.93;;;17.20;99.90;;;;;;5056766;28;20032;-91
2021/09/09 04:02:30;;;;;;;15.13;11.20;;;17.20;99.90;;;;;;5056557;28;20097;-91
2021/09/09 04:04:55;;;;;;;17.17;11.48;;;17.30;99.90;;;;;;5056956;28;20492;-91
2021/09/09 04:07:21;;;;;;;18.23;12.02;;;17.30;99.90;;;;;;5057454;28;20115;-91
2021/09/09 04:09:47;;;;;;;16.83;12.30;;;17.20;99.90;;;;;;5056522;28;20024;-91
2021/09/09 04:12:12;;;;;;;17.67;12.02;;;17.20;99.90;;;;;;5056559;28;20028;-91
2021/09/09 04:14:38;;;;;;;16.13;11.77;;;17.20;99.90;;;;;;5074335;28;20082;-90
2021/09/09 04:17:04;;;;;;;17.45;11.57;;;17.20;99.90;;;;;;5073166;28;20036;-90
2021/09/09 04:19:30;;;;;;;17.58;12.30;;;17.20;99.90;;;;;;5057577;28;20028;-90
2021/09/09 04:21:56;;;;;;;17.42;11.18;;;17.20;99.90;;;;;;5074261;28;20404;-91
2021/09/09 04:24:21;;;;;;;17.17;12.00;;;17.20;99.90;;;;;;5056540;28;20025;-91
2021/09/09 04:26:47;;;;;;;19.27;12.30;;;17.10;99.90;;;;;;5073089;28;20445;-90
2021/09/09 04:29:13;;;;;;;18.35;12.95;;;17.10;99.90;;;;;;5055987;28;20874;-89
2021/09/09 04:31:39;;;;;;;18.30;12.25;;;17.20;99.90;;;;;;5057234;28;20032;-89
2021/09/09 04:34:04;;;;;;;16.35;12.43;;;17.10;99.90;;;;;;5056316;28;20106;-89
2021/09/09 04:36:30;;;;;;;18.58;12.52;;;17.10;99.90;;;;;;5055998;28;20040;-89
2021/09/09 04:38:56;;;;;;;15.60;12.15;;;17.10;99.90;;;;;;5054645;28;20032;-89
2021/09/09 04:41:22;;;;;;;17.45;12.10;;;17.10;99.90;;;;;;5074048;28;20033;-91
2021/09/09 04:43:47;;;;;;;15.77;12.02;;;17.10;99.90;;;;;;5056699;28;20393;-91
2021/09/09 04:46:13;;;;;;;17.35;11.48;;;17.00;99.90;;;;;;5073723;28;20024;-90
2021/09/09 04:48:39;;;;;;;19.23;11.65;;;17.00;99.90;;;;;;5055878;28;20519;-90
2021/09/09 04:51:04;;;;;;;15.07;12.07;;;17.00;99.90;;;;;;5055726;28;20036;-90
2021/09/09 04:53:30;;;;;;;17.30;12.13;;;17.00;99.90;;;;;;5072629;28;20039;-91
2021/09/09 04:55:56;;;;;;;16.08;12.20;;;17.00;99.90;;;;;;5055759;28;20028;-89
2021/09/09 04:58:21;;;;;;;17.17;12.00;;;17.00;99.90;;;;;;5056816;28;20029;-89
2021/09/09 05:00:47;;;;;;;16.67;12.88;;;17.00;99.90;;;;;;5054815;28;20115;-89
2021/09/09 05:03:13;;;;;;;17.65;11.63;;;17.00;99.90;;;;;;5055814;28;20028;-90
2021/09/09 05:05:38;;;;;;;18.88;11.88;;;16.90;99.90;;;;;;5072099;28;20029;-88
2021/09/09 05:08:05;;;;;;;17.35;12.63;;;16.90;99.90;;;;;;5073332;28;20456;-88
2021/09/09 05:10:30;;;;;;;20.40;12.20;;;17.00;99.90;;;;;;5071755;28;20392;-91
2021/09/09 05:12:56;;;;;;;17.52;12.70;;;16.90;99.90;;;;;;5055653;28;20033;-91
2021/09/09 05:15:22;;;;;;;17.33;12.30;;;16.90;99.90;;;;;;5055583;28;20035;-91
2021/09/09 05:17:47;;;;;;;16.25;12.25;;;16.90;99.90;;;;;;5055595;28;20047;-89
2021/09/09 05:20:13;;;;;;;18.35;11.90;;;16.90;99.90;;;;;;5055212;28;20031;-89
2021/09/09 05:22:39;;;;;;;18.52;12.15;;;16.90;99.90;;;;;;5054882;28;20029;-89
2021/09/09 05:25:05;;;;;;;16.90;11.35;;;17.00;99.90;;;;;;5055380;28;20387;-89
2021/09/09 05:27:31;;;;;;;20.23;11.93;;;17.00;99.90;;;;;;5071998;28;20032;-90
2021/09/09 05:29:56;;;;;;;16.23;11.45;;;16.90;99.90;;;;;;5055550;28;20056;-91
2021/09/09 05:32:22;;;;;;;18.75;12.55;;;16.90;99.90;;;;;;5074213;28;20025;-90
2021/09/09 05:34:48;;;;;;;19.33;12.10;;;16.90;99.90;;;;;;5055529;28;20020;-90
2021/09/09 05:37:13;;;;;;;17.15;11.82;;;16.90;99.90;;;;;;5055666;28;20461;-90
2021/09/09 05:39:39;;;;;;;21.38;12.05;;;16.90;99.90;;;;;;5055739;28;20036;-90
2021/09/09 05:42:05;;;;;;;16.63;12.50;;;16.90;99.90;;;;;;5056584;28;20031;-90
2021/09/09 05:44:30;;;;;;;21.35;12.00;;;16.90;99.90;;;;;;5054834;28;20024;-90
2021/09/09 05:46:56;;;;;;;19.35;12.10;;;16.90;99.90;;;;;;5054718;28;20031;-91
2021/09/09 05:49:22;;;;;;;19.23;11.60;;;16.90;99.90;;;;;;5072322;28;20024;-89
2021/09/09 05:51:47;;;;;;;19.60;12.43;;;16.90;99.90;;;;;;5054661;28;20389;-89
2021/09/09 05:54:13;;;;;;;19.00;13.23;;;17.00;99.90;;;;;;5054813;28;20021;-89
2021/09/09 05:56:39;;;;;;;21.33;12.90;;;16.90;99.90;;;;;;5071896;28;20032;-90
2021/09/09 05:59:04;;;;;;;20.65;12.18;;;17.00;99.90;;;;;;5071982;28;20032;-90
2021/09/09 06:01:30;;;;;;;20.70;11.77;;;17.00;99.90;;;;;;5054475;28;20036;-90
2021/09/09 06:03:57;;;;;;;18.80;12.23;;;17.00;99.90;;;;;;5054798;28;20036;-90
2021/09/09 06:06:26;;;;;;;21.90;12.55;;;17.10;99.90;;;;;;5054477;28;20027;-90
2021/09/09 06:08:51;;;;;;;19.27;12.32;;;17.10;99.90;;;;;;5054659;28;20016;-89
2021/09/09 06:11:17;;;;;;;18.83;11.90;;;17.10;99.90;;;;;;5073502;28;20036;-89
2021/09/09 06:13:43;;;;;;;19.48;12.05;;;17.20;99.90;;;;;;5071032;28;20031;-89
2021/09/09 06:16:09;;;;;;;17.50;11.70;;;17.20;99.90;;;;;;5072416;28;20089;-90
2021/09/09 06:18:35;;;;;;;21.30;14.27;;;17.30;99.90;;;;;;5054330;28;20028;-90
2021/09/09 06:21:01;;;;;;;20.52;13.95;;;17.30;99.90;;;;;;5053628;28;20028;-90
2021/09/09 06:23:27;;;;;;;21.05;14.13;;;17.40;99.90;;;;;;5055143;28;20027;-90
2021/09/09 06:25:53;;;;;;;19.85;12.63;;;17.40;99.90;;;;;;5071147;28;20388;-90
2021/09/09 06:28:18;;;;;;;17.65;12.82;;;17.50;99.90;;;;;;5054332;28;20016;-91
2021/09/09 06:30:44;;;;;;;20.13;11.98;;;17.50;99.90;;;;;;5070993;28;20029;-91
2021/09/09 06:33:10;;;;;;;17.25;11.93;;;17.60;99.90;;;;;;5054415;28;20093;-91
2021/09/09 06:35:37;;;;;;;17.27;12.38;;;17.60;99.90;;;;;;5073334;28;20024;-91
2021/09/09 06:38:02;;;;;;;21.70;13.25;;;17.70;99.90;;;;;;5054394;28;20020;-91
2021/09/09 06:40:28;;;;;;;17.13;11.70;;;17.70;99.90;;;;;;5072156;28;20085;-92
2021/09/09 06:42:54;;;;;;;17.90;12.30;;;17.70;99.90;;;;;;5072342;28;20035;-91
2021/09/09 06:45:20;;;;;;;20.48;12.02;;;17.80;99.90;;;;;;5071166;28;20016;-91
2021/09/09 06:47:46;;;;;;;14.75;11.02;;;17.90;99.90;;;;;;5070888;28;20025;-91
2021/09/09 06:50:11;;;;;;;17.17;11.98;;;17.90;99.90;;;;;;5054121;28;20622;-91
2021/09/09 06:52:37;;;;;;;19.10;12.60;;;18.00;99.90;;;;;;5054144;28;20020;-91
2021/09/09 06:55:03;;;;;;;19.95;12.52;;;18.00;99.90;;;;;;5054060;28;20485;-92
2021/09/09 06:57:29;;;;;;;18.98;11.38;;;18.10;99.90;;;;;;5054707;28;20502;-91
2021/09/09 06:59:55;;;;;;;20.17;12.40;;;18.10;99.90;;;;;;5054057;28;20055;-91
2021/09/09 07:02:20;;;;;;;17.55;11.60;;;18.20;99.90;;;;;;5073261;28;20374;-92
2021/09/09 07:04:46;;;;;;;15.60;11.10;;;18.30;99.90;;;;;;5074837;28;20028;-92
2021/09/09 07:07:11;;;;;;;16.77;10.60;;;18.30;99.90;;;;;;5058082;28;20029;-91
2021/09/09 07:09:40;;;;;;;15.95;11.23;;;18.40;99.90;;;;;;5058315;28;20020;-91
2021/09/09 07:12:06;;;;;;;20.60;10.32;;;18.40;99.90;;;;;;5057669;28;20032;-91
2021/09/09 07:14:31;;;;;;;14.60;10.15;;;18.50;99.90;;;;;;5057933;28;20058;-91
2021/09/09 07:16:57;;;;;;;13.00;9.25;;;18.50;99.90;;;;;;5057986;28;20025;-92
2021/09/09 07:19:22;;;;;;;20.52;10.07;;;18.60;99.90;;;;;;5057887;28;20024;-91
2021/09/09 07:21:50;;;;;;;17.58;9.60;;;18.60;99.90;;;;;;5057521;28;20070;-91
2021/09/09 07:24:19;;;;;;;14.85;9.25;;;18.70;99.90;;;;;;5057488;28;20489;-92
2021/09/09 07:26:45;;;;;;;;;;;18.80;99.90;;;;;;5057792;28;20112;-91
2021/09/09 07:29:13;;;;;;;12.98;8.43;;;18.80;99.90;;;;;;5075221;28;19999;-91
2021/09/09 07:31:38;;;;;;;13.43;8.30;;;18.90;99.90;;;;;;5057404;28;20029;-92
2021/09/09 07:34:04;;;;;;;13.32;8.73;;;18.90;99.90;;;;;;5057332;28;20489;-91
2021/09/09 07:36:29;;;;;;;15.02;9.15;;;18.90;99.90;;;;;;5057513;28;20050;-92
2021/09/09 07:38:55;;;;;;;16.17;8.90;;;19.10;99.90;;;;;;5057357;28;20074;-91
2021/09/09 07:41:21;;;;;;;12.50;8.93;;;19.10;99.90;;;;;;5058087;28;20119;-91
2021/09/09 07:43:46;;;;;;;16.15;11.35;;;19.20;99.90;;;;;;5057579;28;20095;-91
2021/09/09 07:46:12;;;;;;;16.23;9.95;;;19.20;99.90;;;;;;5075128;28;20024;-92
2021/09/09 07:48:38;;;;;;;12.55;8.80;;;19.30;99.90;;;;;;5057092;28;20507;-91
2021/09/09 07:51:03;;;;;;;12.88;9.18;;;19.30;99.90;;;;;;5056949;28;20017;-91
2021/09/09 07:53:29;;;;;;;12.75;8.77;;;19.40;99.90;;;;;;5057264;28;20017;-91
2021/09/09 07:55:54;;;;;;;11.93;8.52;;;19.40;99.80;;;;;;5057199;28;20032;-91
2021/09/09 07:58:20;;;;;;;15.05;10.25;;;19.50;99.50;;;;;;5057291;28;20028;-92
2021/09/09 08:00:46;;;;;;;14.13;10.57;;;19.50;99.40;;;;;;5074888;28;20056;-91
2021/09/09 08:03:11;;;;;;;18.20;11.10;;;19.60;99.20;;;;;;5056914;28;20078;-91
2021/09/09 08:05:37;;;;;;;21.05;11.02;;;19.60;99.10;;;;;;5056942;28;20489;-91
2021/09/09 08:08:05;;;;;;;15.30;9.43;;;19.70;99.00;;;;;;5074730;28;20432;-91
2021/09/09 08:10:31;;;;;;;17.77;10.00;;;19.70;98.80;;;;;;5056390;28;20112;-91
2021/09/09 08:12:56;;;;;;;13.90;9.30;;;19.70;98.50;;;;;;5056274;28;20123;-91
2021/09/09 08:15:22;;;;;;;14.68;9.95;;;19.80;98.30;;;;;;5055992;28;20028;-92
2021/09/09 08:17:48;;;;;;;15.52;9.30;;;19.90;98.20;;;;;;5056722;28;20490;-91
2021/09/09 08:20:13;;;;;;;12.35;8.38;;;19.90;98.20;;;;;;5056383;28;20111;-91
2021/09/09 08:22:41;;;;;;;10.63;7.65;;;19.90;98.30;;;;;;5056299;28;20389;-91
2021/09/09 08:25:08;;;;;;;10.25;7.90;;;19.90;98.40;;;;;;5056320;28;20021;-91
2021/09/09 08:27:33;;;;;;;11.23;7.63;;;19.90;98.40;;;;;;5056472;28;20508;-91
2021/09/09 08:29:59;;;;;;;10.25;7.70;;;19.90;98.40;;;;;;5056137;28;20029;-92
2021/09/09 08:32:25;;;;;;;12.80;7.97;;;20.00;98.40;;;;;;5056220;28;20477;-92
2021/09/09 08:34:53;;;;;;;10.13;7.80;;;20.00;98.20;;;;;;5074103;28;20020;-91
2021/09/09 08:37:20;;;;;;;10.63;7.95;;;20.10;98.10;;;;;;5056217;28;20027;-91
2021/09/09 08:39:46;;;;;;;11.55;7.50;;;20.10;98.10;;;;;;5056290;28;20074;-92
2021/09/09 08:42:12;;;;;;;12.82;7.85;;;20.10;98.00;;;;;;5055913;28;20032;-91
2021/09/09 08:44:38;;;;;;;12.85;7.53;;;20.20;98.00;;;;;;5056024;28;20028;-91
2021/09/09 08:47:07;;;;;;;13.38;8.25;;;20.20;97.70;;;;;;5056069;28;20031;-91
2021/09/09 08:49:32;;;;;;;13.05;7.65;;;20.20;97.90;;;;;;5056071;28;20435;-91
2021/09/09 08:51:58;;;;;;;12.93;7.28;;;20.30;97.60;;;;;;5055837;28;20029;-92
2021/09/09 08:54:26;;;;;;;12.10;7.97;;;20.30;97.70;;;;;;5055732;28;20404;-92
2021/09/09 08:56:51;;;;;;;13.45;7.60;;;20.30;97.80;;;;;;5055843;28;20500;-91
2021/09/09 08:59:17;;;;;;;12.40;8.13;;;20.30;97.90;;;;;;5055579;28;20032;-91
2021/09/09 09:02:03;;;;;;;14.90;7.72;;;20.30;98.00;;;;;;5073580;28;20488;-91
2021/09/09 09:04:30;;;;;;;12.93;7.82;;;20.20;98.10;;;;;;5073660;28;20025;-92
2021/09/09 09:06:56;;;;;;;15.27;8.80;;;20.20;98.40;;;;;;5055618;28;20024;-92
2021/09/09 09:09:24;;;;;;;13.57;8.80;;;20.30;98.30;;;;;;5073512;28;20222;-91
2021/09/09 09:11:51;;;;;;;10.18;7.68;;;20.30;98.20;;;;;;5055794;28;20052;-91
2021/09/09 09:14:19;;;;;;;12.23;8.15;;;20.40;98.10;;;;;;5055468;28;20033;-91
2021/09/09 09:16:50;;;;;;;10.90;7.72;;;20.50;97.80;;;;;;5055553;28;20094;-91
2021/09/09 09:19:23;;;;;;;10.82;7.13;;;20.60;98.00;;;;;;5073460;28;20024;-92
2021/09/09 09:21:53;;;;;;;10.95;7.63;;;20.70;97.60;;;;;;5055270;28;20024;-91
2021/09/09 09:24:19;;;;;;;11.70;7.38;;;20.70;97.50;;;;;;5055369;28;20029;-92
2021/09/09 09:27:14;;;;;;;13.27;7.80;;;20.80;97.40;;;;;;5055131;28;20024;-91
2021/09/09 09:29:43;;;;;;;12.93;8.68;;;20.80;97.20;;;;;;5055049;28;20055;-92
2021/09/09 09:32:18;;;;;;;10.52;7.60;;;20.90;97.30;;;;;;5055180;28;20119;-92
2021/09/09 09:34:45;;;;;;;10.98;7.55;;;20.80;97.60;;;;;;5055372;28;20063;-92
2021/09/09 09:37:21;;;;;;;12.02;7.85;;;20.90;97.30;;;;;;5055169;28;20032;-91
2021/09/09 09:39:47;;;;;;;9.90;7.30;;;20.90;97.50;;;;;;5055664;28;20033;-91
2021/09/09 09:42:13;;;;;;;11.15;7.47;;;20.80;97.10;;;;;;5055628;28;20033;-91
2021/09/09 09:44:41;;;;;;;12.50;8.32;;;20.90;97.20;;;;;;5055401;28;20366;-92
2021/09/09 09:47:20;;;;;;;14.63;7.93;;;20.90;97.50;;;;;;5054897;28;20094;-92
2021/09/09 09:49:50;;;;;;;12.40;8.38;;;20.90;97.20;;;;;;5054927;28;20016;-91
2021/09/09 09:52:27;;;;;;;12.55;8.32;;;21.00;97.00;;;;;;5054824;28;20020;-91
2021/09/09 09:55:00;;;;;;;11.75;7.82;;;21.10;97.20;;;;;;5072661;28;20052;-91
2021/09/09 09:57:29;;;;;;;15.27;8.07;;;21.30;97.00;;;;;;5054739;28;20115;-92
2021/09/09 09:59:55;;;;;;;14.27;9.27;;;21.30;97.00;;;;;;5054499;28;20028;-92
2021/09/09 10:02:22;;;;;;;14.32;9.40;;;21.30;97.00;;;;;;5054632;28;20345;-92
2021/09/09 10:04:52;;;;;;;12.73;8.43;;;21.30;97.20;;;;;;5054905;28;20035;-92
2021/09/09 10:07:18;;;;;;;11.40;7.97;;;21.40;97.20;;;;;;5054424;28;20024;-92
2021/09/09 10:10:19;;;;;;;12.48;8.25;;;21.50;96.70;;;;;;5074933;28;20035;-91
2021/09/09 10:12:48;;;;;;;9.93;7.93;;;21.50;96.80;;;;;;5057040;28;20036;-91
2021/09/09 10:15:15;;;;;;;16.40;8.48;;;21.60;96.70;;;;;;5072416;28;20028;-92
2021/09/09 10:17:41;;;;;;;10.90;7.63;;;21.70;96.80;;;;;;5054376;28;20028;-91
2021/09/09 10:20:29;;;;;;;12.30;8.65;;;21.70;96.80;;;;;;5072480;28;20066;-92
2021/09/09 10:23:05;;;;;;;12.25;8.45;;;21.80;96.80;;;;;;5054345;28;20036;-91
2021/09/09 10:25:54;;;;;;;12.68;8.30;;;21.80;96.80;;;;;;5054148;28;20113;-91
2021/09/09 10:28:48;;;;;;;12.57;7.93;;;21.80;96.80;;;;;;5054156;28;20042;-92
2021/09/09 10:31:13;;;;;;;11.90;8.00;;;21.80;96.90;;;;;;5054267;28;20025;-92
2021/09/09 10:33:46;;;;;;;10.88;7.63;;;21.80;97.00;;;;;;5054470;28;20031;-91
2021/09/09 10:36:42;;;;;;;12.80;8.68;;;21.80;97.00;;;;;;5054057;28;20024;-92
2021/09/09 10:39:09;;;;;;;14.32;8.98;;;21.80;97.20;;;;;;5054923;28;20451;-91
2021/09/09 10:41:36;;;;;;;15.67;9.70;;;21.80;97.20;;;;;;5054129;28;20032;-92
2021/09/09 10:44:04;;;;;;;14.65;8.27;;;21.90;97.20;;;;;;5054241;28;20829;-92
2021/09/09 10:46:38;;;;;;;10.63;7.90;;;21.90;97.10;;;;;;5054046;28;20032;-92
2021/09/09 10:49:07;;;;;;;15.07;8.50;;;22.00;97.10;;;;;;5054232;28;20032;-92
2021/09/09 10:51:33;;;;;;;17.67;10.60;;;22.00;97.10;;;;;;5054178;28;20021;-90
2021/09/09 10:53:59;;;;;;;14.65;9.93;;;22.10;97.10;;;;;;5072180;28;20021;-91
2021/09/09 10:56:35;;;;;;;12.70;8.60;;;22.10;96.90;;;;;;5054061;28;20507;-92
2021/09/09 10:59:19;;;;;;;13.50;8.65;;;22.10;96.90;;;;;;5053981;28;20115;-91
2021/09/09 11:01:47;;;;;;;11.90;8.25;;;22.20;96.90;;;;;;5053921;28;20036;-92
2021/09/09 11:04:32;;;;;;;12.23;8.38;;;22.20;96.90;;;;;;5053960;28;20017;-91
2021/09/09 11:06:59;;;;;;;12.73;8.55;;;22.20;97.00;;;;;;5054212;28;20086;-92
2021/09/09 11:09:26;;;;;;;12.13;8.52;;;22.30;96.70;;;;;;5054689;28;20021;-92
2021/09/09 11:12:01;;;;;;;13.07;8.52;;;22.30;96.50;;;;;;5053391;28;20086;-91
2021/09/09 11:14:27;;;;;;;12.95;8.00;;;22.40;96.70;;;;;;5071744;28;20093;-92
2021/09/09 11:16:53;;;;;;;14.48;8.95;;;22.40;96.80;;;;;;5053744;28;20032;-92
2021/09/09 11:19:23;;;;;;;12.57;8.73;;;22.40;96.80;;;;;;5053599;28;20135;-91
2021/09/09 11:21:51;;;;;;;10.95;8.20;;;22.30;96.90;;;;;;5053866;28;20397;-91
2021/09/09 11:24:17;;;;;;;14.00;9.53;;;22.30;96.90;;;;;;5053579;28;20119;-91
2021/09/09 11:26:46;;;;;;;12.45;9.13;;;22.30;97.00;;;;;;5053673;28;20470;-92
2021/09/09 11:29:11;;;;;;;;;;;22.40;97.20;;;;;;5053556;28;20029;-92
2021/09/09 11:31:49;;;;;;;13.60;8.02;;;22.50;97.10;;;;;;5053716;28;20049;-91
2021/09/09 11:34:23;;;;;;;18.20;10.35;;;22.70;97.10;;;;;;5053736;28;20039;-92
2021/09/09 11:36:49;;;;;;;12.60;8.90;;;22.80;97.00;;;;;;5071535;28;20103;-91
2021/09/09 11:39:19;;;;;;;14.43;9.60;;;22.90;97.10;;;;;;5053521;28;20028;-92
2021/09/09 11:41:45;;;;;;;14.00;8.80;;;22.90;97.10;;;;;;5072558;23;20041;-84
2021/09/09 11:44:24;;;;;;;16.70;9.85;;;22.90;97.20;;;;;;5051505;28;20054;-84
2021/09/09 11:46:50;;;;;;;11.90;8.98;;;23.00;97.40;;;;;;5051469;28;20100;-84
2021/09/09 11:49:17;;;;;;;13.45;9.63;;;23.00;97.40;;;;;;5035922;28;20056;-84
2021/09/09 11:51:46;;;;;;;14.90;9.20;;;22.90;97.50;;;;;;5033880;28;20052;-84
2021/09/09 11:54:24;;;;;;;15.18;9.60;;;22.90;97.90;;;;;;5017576;28;20449;-84
2021/09/09 11:57:00;;;;;;;15.13;9.75;;;22.90;97.90;;;;;;5035505;28;20026;-84
2021/09/09 11:59:26;;;;;;;17.02;9.30;;;22.80;98.20;;;;;;5017122;28;20095;-84
2021/09/09 12:01:57;;;;;;;17.88;10.45;;;22.80;98.40;;;;;;5034712;28;20041;-84
2021/09/09 12:04:23;;;;;;;14.63;9.50;;;23.00;98.50;;;;;;5017025;28;20390;-84
2021/09/09 12:06:49;;;;;;;15.93;9.65;;;23.10;98.40;;;;;;5017296;28;20024;-84
2021/09/09 12:09:38;;;;;;;16.85;11.25;;;23.10;98.40;;;;;;5034342;28;20038;-84
2021/09/09 12:12:10;;;;;;;19.00;11.50;;;23.00;98.90;;;;;;5016749;28;20542;-84
2021/09/09 12:14:37;;;;;;;15.88;10.35;;;23.20;98.90;;;;;;5016886;28;20069;-84
2021/09/09 12:17:07;;;;;;;15.13;10.30;;;23.40;98.60;;;;;;5017052;28;20025;-84
2021/09/09 12:19:56;;;;;;;15.27;10.77;;;23.40;98.60;;;;;;5034175;28;20022;-84
2021/09/09 12:22:51;;;;;;;15.10;10.05;;;23.50;98.60;;;;;;5016406;28;20032;-84
2021/09/09 12:25:20;;;;;;;15.80;9.80;;;23.50;98.60;;;;;;5034391;28;20013;-84
2021/09/09 12:28:15;;;;;;;14.88;10.00;;;23.40;98.60;;;;;;5016787;28;20397;-84
2021/09/09 12:30:52;;;;;;;16.05;9.80;;;23.60;98.80;;;;;;5034074;28;20489;-84
2021/09/09 12:33:23;;;;;;;15.50;9.70;;;23.80;98.40;;;;;;5016302;28;20029;-84
2021/09/09 12:36:07;;;;;;;13.13;8.60;;;23.90;98.30;;;;;;5016395;28;20078;-84